Time;durP1;ratioP1;P1;durP2;ratioP2;P2;SDS_P1;SDS_P2;PMS_P1;PMS_P2;Temp;Humidity;BMP_temperature;BMP_pressure;BME280_temperature;BME280_humidity;BME280_pressure;Samples;Min_cycle;Max_cycle;Signal;HPM_P1;HPM_P2
2021/01/09 00:01:37;;;;;;;22.83;16.70;;;0.80;99.90;;;;;;5113476;28;20172;-84
2021/01/09 00:04:05;;;;;;;24.10;16.90;;;1.00;99.90;;;;;;5113726;28;20416;-84
2021/01/09 00:06:38;;;;;;;24.40;16.63;;;0.60;99.90;;;;;;5113228;28;20428;-84
2021/01/09 00:09:04;;;;;;;27.07;18.57;;;0.90;99.90;;;;;;5113031;28;20774;-84
2021/01/09 00:11:31;;;;;;;24.03;17.60;;;1.00;99.90;;;;;;5113107;28;20604;-84
2021/01/09 00:13:57;;;;;;;25.50;18.27;;;1.00;99.90;;;;;;5113091;28;20451;-85
2021/01/09 00:16:23;;;;;;;23.27;17.50;;;0.60;99.90;;;;;;5113505;28;20469;-84
2021/01/09 00:18:49;;;;;;;23.20;17.60;;;0.60;99.90;;;;;;5113239;28;20173;-83
2021/01/09 00:21:14;;;;;;;22.73;18.20;;;0.50;99.90;;;;;;5112744;28;20208;-84
2021/01/09 00:23:40;;;;;;;18.40;14.47;;;1.10;99.90;;;;;;5113087;28;20451;-84
2021/01/09 00:26:05;;;;;;;24.73;16.13;;;0.60;99.90;;;;;;5112610;28;20233;-84
2021/01/09 00:28:31;;;;;;;22.33;15.67;;;0.70;99.90;;;;;;5112972;28;20177;-83
2021/01/09 00:30:57;;;;;;;24.23;16.70;;;0.90;99.90;;;;;;5113336;28;20623;-84
2021/01/09 00:33:22;;;;;;;18.60;15.93;;;0.70;99.90;;;;;;5113039;28;20189;-84
2021/01/09 00:35:48;;;;;;;20.27;15.47;;;1.20;99.90;;;;;;5114416;28;20265;-84
2021/01/09 00:38:13;;;;;;;19.73;16.03;;;1.10;99.90;;;;;;5114138;28;20174;-84
2021/01/09 00:40:39;;;;;;;17.30;14.50;;;0.80;99.90;;;;;;5115393;28;20261;-85
2021/01/09 00:43:04;;;;;;;21.90;17.90;;;1.20;99.90;;;;;;5123126;28;20178;-84
2021/01/09 00:45:30;;;;;;;22.97;16.03;;;1.00;99.90;;;;;;5112959;28;20544;-84
2021/01/09 00:47:55;;;;;;;20.90;13.97;;;1.00;99.90;;;;;;5112985;28;20596;-84
2021/01/09 00:50:21;;;;;;;25.70;17.07;;;0.70;99.90;;;;;;5112735;28;20174;-84
2021/01/09 00:52:46;;;;;;;24.87;17.37;;;1.00;99.90;;;;;;5112867;28;20217;-84
2021/01/09 00:55:14;;;;;;;23.00;18.80;;;0.60;99.90;;;;;;5112748;28;20178;-85
2021/01/09 00:57:40;;;;;;;25.70;18.20;;;1.00;99.90;;;;;;5113946;28;20174;-85
2021/01/09 01:00:06;;;;;;;24.60;19.60;;;0.90;99.90;;;;;;5112856;28;20507;-83
2021/01/09 01:02:32;;;;;;;26.87;20.57;;;1.10;99.90;;;;;;5112603;28;20607;-84
2021/01/09 01:04:58;;;;;;;24.30;18.47;;;0.90;99.90;;;;;;5112871;28;20447;-84
2021/01/09 01:07:23;;;;;;;26.30;19.30;;;1.00;99.90;;;;;;5112626;28;20637;-81
2021/01/09 01:09:49;;;;;;;25.90;19.67;;;1.00;99.90;;;;;;5112581;28;20423;-84
2021/01/09 01:12:15;;;;;;;24.80;18.07;;;0.50;99.90;;;;;;5112549;28;20600;-84
2021/01/09 01:14:40;;;;;;;21.00;17.47;;;0.50;99.90;;;;;;5112564;28;20173;-84
2021/01/09 01:17:06;;;;;;;24.00;17.00;;;0.60;99.90;;;;;;5112646;28;20189;-83
2021/01/09 01:19:31;;;;;;;28.43;19.60;;;0.60;99.90;;;;;;5112394;28;20181;-82
2021/01/09 01:21:57;;;;;;;24.50;17.27;;;0.70;99.90;;;;;;5115685;28;20181;-83
2021/01/09 01:24:23;;;;;;;21.50;15.73;;;0.70;99.90;;;;;;5116503;28;20178;-83
2021/01/09 01:26:49;;;;;;;22.40;14.67;;;1.10;99.90;;;;;;5116268;28;20229;-83
2021/01/09 01:29:14;;;;;;;32.60;17.50;;;0.90;99.90;;;;;;5116818;28;20504;-83
2021/01/09 01:31:40;;;;;;;36.13;24.63;;;1.00;99.90;;;;;;5116314;28;20225;-83
2021/01/09 01:34:09;;;;;;;23.53;17.30;;;0.80;99.90;;;;;;5116302;28;20549;-82
2021/01/09 01:36:34;;;;;;;24.00;18.03;;;0.80;99.90;;;;;;5116186;28;20170;-83
2021/01/09 01:39:00;;;;;;;22.87;15.97;;;0.70;99.90;;;;;;5116313;28;20980;-83
2021/01/09 01:41:25;;;;;;;22.00;14.73;;;0.90;99.90;;;;;;5116214;28;20268;-84
2021/01/09 01:43:52;;;;;;;18.23;14.63;;;0.90;99.90;;;;;;5115971;28;20166;-83
2021/01/09 01:46:18;;;;;;;23.77;16.23;;;0.80;99.90;;;;;;5116020;28;20651;-82
2021/01/09 01:48:44;;;;;;;20.70;17.20;;;0.60;99.90;;;;;;5117183;28;20898;-83
2021/01/09 01:51:12;;;;;;;21.40;15.07;;;1.00;99.90;;;;;;5115741;28;20767;-83
2021/01/09 01:53:38;;;;;;;19.97;15.80;;;0.50;99.90;;;;;;5115908;28;20427;-83
2021/01/09 01:56:05;;;;;;;23.00;16.83;;;1.00;99.90;;;;;;5115620;28;20408;-83
2021/01/09 01:58:31;;;;;;;22.90;17.20;;;1.20;99.90;;;;;;5117056;28;20166;-82
2021/01/09 02:00:56;;;;;;;23.20;17.50;;;0.60;99.90;;;;;;5115700;28;20493;-83
2021/01/09 02:03:22;;;;;;;22.70;15.77;;;1.00;99.90;;;;;;5115624;28;20227;-82
2021/01/09 02:06:39;;;;;;;25.60;17.17;;;0.70;99.90;;;;;;5116847;28;20166;-82
2021/01/09 02:09:10;;;;;;;23.57;17.70;;;1.00;99.90;;;;;;5136753;27;20178;-82
2021/01/09 02:11:41;;;;;;;24.73;17.70;;;0.60;99.90;;;;;;5115541;28;20448;-83
2021/01/09 02:14:13;;;;;;;24.67;18.13;;;0.40;99.90;;;;;;5115782;28;20533;-83
2021/01/09 02:16:39;;;;;;;23.20;18.40;;;0.80;99.90;;;;;;5115329;28;20469;-83
2021/01/09 02:19:08;;;;;;;26.00;18.70;;;0.50;99.90;;;;;;5115122;28;20427;-83
2021/01/09 02:21:41;;;;;;;26.10;18.53;;;1.00;99.90;;;;;;5115471;28;20415;-83
2021/01/09 02:24:14;;;;;;;29.00;18.50;;;0.50;99.90;;;;;;5115133;28;20437;-83
2021/01/09 02:26:40;;;;;;;24.57;18.43;;;0.80;99.90;;;;;;5116353;28;20456;-83
2021/01/09 02:29:05;;;;;;;23.13;16.00;;;0.50;99.90;;;;;;5115138;28;20504;-83
2021/01/09 02:31:37;;;;;;;25.70;17.93;;;0.30;99.90;;;;;;5116034;28;20205;-82
2021/01/09 02:34:08;;;;;;;27.00;18.77;;;0.40;99.90;;;;;;5115253;28;20273;-82
2021/01/09 02:36:33;;;;;;;24.27;17.07;;;0.30;99.90;;;;;;5115136;28;20846;-83
2021/01/09 02:38:59;;;;;;;28.43;18.17;;;0.30;99.90;;;;;;5115103;28;20428;-82
2021/01/09 02:41:26;;;;;;;26.20;19.97;;;0.40;99.90;;;;;;5115537;28;20657;-82
2021/01/09 02:43:52;;;;;;;23.50;18.10;;;0.80;99.90;;;;;;5116052;28;20219;-82
2021/01/09 02:46:18;;;;;;;25.10;18.17;;;0.30;99.90;;;;;;5115335;28;20801;-82
2021/01/09 02:48:43;;;;;;;23.77;17.70;;;0.70;99.90;;;;;;5115467;28;20210;-82
2021/01/09 02:51:09;;;;;;;26.40;17.00;;;0.40;99.90;;;;;;5114672;28;20226;-83
2021/01/09 02:53:34;;;;;;;23.20;17.27;;;1.00;99.90;;;;;;5114882;28;20299;-82
2021/01/09 02:56:00;;;;;;;27.30;17.50;;;0.60;99.90;;;;;;5114864;28;20645;-83
2021/01/09 02:58:25;;;;;;;22.37;17.57;;;0.50;99.90;;;;;;5114526;28;20177;-83
2021/01/09 03:00:51;;;;;;;26.30;16.93;;;0.50;99.90;;;;;;5115322;28;20203;-83
2021/01/09 03:03:17;;;;;;;26.73;16.70;;;0.90;99.90;;;;;;5115163;28;20173;-83
2021/01/09 03:05:42;;;;;;;26.70;16.50;;;0.40;99.90;;;;;;5114604;28;20247;-82
2021/01/09 03:08:08;;;;;;;25.43;17.93;;;0.80;99.90;;;;;;5114750;28;20212;-83
2021/01/09 03:10:33;;;;;;;26.90;18.03;;;0.50;99.90;;;;;;5114310;28;20190;-83
2021/01/09 03:12:59;;;;;;;25.33;17.67;;;0.80;99.90;;;;;;5114378;28;20290;-83
2021/01/09 03:15:24;;;;;;;32.67;19.73;;;0.70;99.90;;;;;;5114033;28;20196;-83
2021/01/09 03:17:51;;;;;;;25.00;17.90;;;0.80;99.90;;;;;;5115411;28;20178;-82
2021/01/09 03:20:17;;;;;;;26.17;18.70;;;0.80;99.90;;;;;;5114325;28;20182;-83
2021/01/09 03:22:43;;;;;;;32.20;22.43;;;0.70;99.90;;;;;;5115414;28;20412;-82
2021/01/09 03:25:09;;;;;;;31.80;20.03;;;0.30;99.90;;;;;;5114088;28;20181;-83
2021/01/09 03:27:35;;;;;;;28.83;20.33;;;0.80;99.90;;;;;;5114066;28;20229;-83
2021/01/09 03:30:07;;;;;;;30.80;19.87;;;0.20;99.90;;;;;;5114076;28;20878;-82
2021/01/09 03:32:33;;;;;;;32.33;19.90;;;0.80;99.90;;;;;;5113934;28;20660;-83
2021/01/09 03:34:58;;;;;;;37.23;22.83;;;0.80;99.90;;;;;;5113919;28;20510;-84
2021/01/09 03:37:24;;;;;;;27.70;18.80;;;0.30;99.90;;;;;;5113815;28;20181;-83
2021/01/09 03:39:49;;;;;;;26.53;20.00;;;0.70;99.90;;;;;;5114934;28;20166;-82
2021/01/09 03:42:15;;;;;;;25.07;18.77;;;0.30;99.90;;;;;;5114095;28;20178;-83
2021/01/09 03:44:40;;;;;;;28.23;20.13;;;0.80;99.90;;;;;;5113287;28;20201;-84
2021/01/09 03:47:06;;;;;;;25.07;18.90;;;0.40;99.90;;;;;;5113585;28;20648;-83
2021/01/09 03:49:31;;;;;;;30.10;19.67;;;0.70;99.90;;;;;;5113746;28;20176;-82
2021/01/09 03:51:57;;;;;;;34.77;22.80;;;0.70;99.90;;;;;;5113542;28;20213;-83
2021/01/09 03:54:23;;;;;;;33.80;22.80;;;0.80;99.90;;;;;;5113160;28;20266;-82
2021/01/09 03:56:48;;;;;;;30.60;21.47;;;0.40;99.90;;;;;;5113580;28;20177;-82
2021/01/09 03:59:14;;;;;;;29.30;20.77;;;0.50;99.90;;;;;;5113536;28;20205;-83
2021/01/09 04:01:39;;;;;;;36.27;22.60;;;0.80;99.90;;;;;;5113458;28;20657;-83
2021/01/09 04:04:05;;;;;;;33.33;23.10;;;0.80;99.90;;;;;;5114645;28;20172;-83
2021/01/09 04:06:30;;;;;;;40.27;24.90;;;0.20;99.90;;;;;;5113498;28;20238;-83
2021/01/09 04:08:56;;;;;;;32.60;21.03;;;0.20;99.90;;;;;;5113513;28;20184;-83
2021/01/09 04:11:21;;;;;;;37.93;21.87;;;0.60;99.90;;;;;;5113236;28;20208;-83
2021/01/09 04:13:47;;;;;;;31.40;21.07;;;0.50;99.90;;;;;;5113537;28;20190;-80
2021/01/09 04:16:13;;;;;;;33.17;23.50;;;0.90;99.90;;;;;;5113296;28;20174;-83
2021/01/09 04:18:38;;;;;;;33.13;21.70;;;0.30;99.90;;;;;;5113338;28;20319;-83
2021/01/09 04:21:04;;;;;;;31.47;22.80;;;0.50;99.90;;;;;;5113485;28;20211;-82
2021/01/09 04:23:29;;;;;;;31.20;22.33;;;1.00;99.90;;;;;;5113076;28;20687;-83
2021/01/09 04:25:55;;;;;;;35.60;23.17;;;0.80;99.90;;;;;;5112848;28;20217;-82
2021/01/09 04:28:21;;;;;;;29.93;21.60;;;0.40;99.90;;;;;;5113004;28;20262;-83
2021/01/09 04:30:46;;;;;;;26.40;21.33;;;0.40;99.90;;;;;;5113115;28;20652;-82
2021/01/09 04:33:12;;;;;;;36.73;23.60;;;0.50;99.90;;;;;;5112956;28;20216;-82
2021/01/09 04:35:40;;;;;;;33.57;21.37;;;0.40;99.90;;;;;;5113082;28;20173;-83
2021/01/09 04:38:06;;;;;;;33.73;23.47;;;0.30;99.90;;;;;;5113144;28;20177;-83
2021/01/09 04:40:31;;;;;;;30.90;23.20;;;0.40;99.90;;;;;;5113037;28;20740;-82
2021/01/09 04:42:58;;;;;;;29.00;20.97;;;0.80;99.90;;;;;;5114206;28;20212;-83
2021/01/09 04:45:23;;;;;;;31.33;23.23;;;0.70;99.90;;;;;;5112873;28;20162;-83
2021/01/09 04:47:50;;;;;;;33.27;21.53;;;0.40;99.90;;;;;;5112916;28;20431;-83
2021/01/09 04:50:18;;;;;;;29.60;21.80;;;0.30;99.90;;;;;;5112841;28;20185;-83
2021/01/09 04:52:43;;;;;;;33.17;23.17;;;0.40;99.90;;;;;;5112828;28;20467;-83
2021/01/09 04:55:10;;;;;;;35.23;22.83;;;0.30;99.90;;;;;;5114939;28;20836;-83
2021/01/09 04:57:36;;;;;;;35.93;23.10;;;0.90;99.90;;;;;;5116860;28;20189;-83
2021/01/09 05:00:05;;;;;;;30.93;20.93;;;0.40;99.90;;;;;;5117119;28;20520;-82
2021/01/09 05:02:36;;;;;;;28.63;19.73;;;1.10;99.90;;;;;;5116893;28;20230;-83
2021/01/09 05:05:02;;;;;;;34.97;21.97;;;0.80;99.90;;;;;;5116696;28;20416;-84
2021/01/09 05:07:28;;;;;;;37.97;23.40;;;0.90;99.90;;;;;;5117073;28;20435;-83
2021/01/09 05:10:03;;;;;;;34.97;22.73;;;0.50;99.90;;;;;;5116874;28;20472;-82
2021/01/09 05:12:32;;;;;;;34.13;21.60;;;0.90;99.90;;;;;;5117725;28;20692;-83
2021/01/09 05:15:00;;;;;;;30.73;21.67;;;0.90;99.90;;;;;;5116531;28;20817;-84
2021/01/09 05:17:26;;;;;;;33.60;22.10;;;0.50;99.90;;;;;;5116691;28;20456;-83
2021/01/09 05:19:51;;;;;;;32.63;21.63;;;0.40;99.90;;;;;;5116668;28;20423;-83
2021/01/09 05:22:17;;;;;;;32.80;22.90;;;0.80;99.90;;;;;;5117700;28;20265;-85
2021/01/09 05:24:48;;;;;;;29.07;20.30;;;0.80;99.90;;;;;;5119058;28;20540;-83
2021/01/09 05:27:16;;;;;;;32.60;23.33;;;0.40;99.90;;;;;;5116821;28;20456;-83
2021/01/09 05:29:42;;;;;;;32.50;21.43;;;0.90;99.90;;;;;;5117508;28;20481;-84
2021/01/09 05:32:10;;;;;;;33.40;21.70;;;0.90;99.90;;;;;;5116244;28;20467;-82
2021/01/09 05:34:53;;;;;;;31.63;21.30;;;0.90;99.90;;;;;;5116222;28;20598;-83
2021/01/09 05:37:22;;;;;;;32.73;20.63;;;0.70;99.90;;;;;;5117297;27;20902;-83
2021/01/09 05:39:58;;;;;;;33.90;22.20;;;0.40;99.90;;;;;;5116378;28;20427;-83
2021/01/09 05:42:28;;;;;;;33.47;22.07;;;0.70;99.90;;;;;;5115515;28;20978;-83
2021/01/09 05:44:56;;;;;;;36.93;23.77;;;0.80;99.90;;;;;;5115927;28;20419;-83
2021/01/09 05:47:24;;;;;;;33.97;22.40;;;0.90;99.90;;;;;;5117306;28;20422;-83
2021/01/09 05:49:51;;;;;;;30.97;20.70;;;0.50;99.90;;;;;;5116048;28;20455;-84
2021/01/09 05:52:17;;;;;;;35.50;23.90;;;0.50;99.90;;;;;;5116068;28;20469;-82
2021/01/09 05:54:43;;;;;;;33.57;23.10;;;0.50;99.90;;;;;;5116025;28;20995;-83
2021/01/09 05:57:16;;;;;;;34.67;23.00;;;0.50;99.90;;;;;;5115736;28;20617;-83
2021/01/09 05:59:43;;;;;;;35.50;23.03;;;1.00;99.90;;;;;;5116032;28;20192;-83
2021/01/09 06:02:10;;;;;;;31.80;21.07;;;0.60;99.90;;;;;;5117208;28;20411;-81
2021/01/09 06:04:41;;;;;;;36.10;22.50;;;0.50;99.90;;;;;;5115766;28;20485;-83
2021/01/09 06:07:14;;;;;;;32.53;20.40;;;0.40;99.90;;;;;;5114953;28;20863;-83
2021/01/09 06:10:07;;;;;;;33.40;22.20;;;1.00;99.90;;;;;;5116084;28;20455;-83
2021/01/09 06:12:36;;;;;;;35.17;23.10;;;0.70;99.90;;;;;;5113382;28;20558;-83
2021/01/09 06:15:06;;;;;;;33.10;20.77;;;0.90;99.90;;;;;;5115371;28;20411;-83
2021/01/09 06:17:34;;;;;;;34.90;21.23;;;1.00;99.90;;;;;;5115574;28;20809;-83
2021/01/09 06:19:59;;;;;;;41.30;22.77;;;0.60;99.90;;;;;;5115407;28;20426;-83
2021/01/09 06:22:26;;;;;;;32.53;20.90;;;0.80;99.90;;;;;;5116003;28;20511;-82
2021/01/09 06:24:52;;;;;;;28.97;19.30;;;1.00;99.90;;;;;;5116018;28;20197;-83
2021/01/09 06:27:27;;;;;;;30.83;21.10;;;0.90;99.90;;;;;;5115690;28;20467;-84
2021/01/09 06:29:59;;;;;;;28.40;19.97;;;0.70;99.90;;;;;;5115387;28;20627;-82
2021/01/09 06:32:28;;;;;;;34.90;20.57;;;0.90;99.90;;;;;;5115116;28;20459;-83
2021/01/09 06:34:54;;;;;;;33.47;22.20;;;0.30;99.90;;;;;;5115157;28;20473;-82
2021/01/09 06:37:23;;;;;;;35.57;22.20;;;0.40;99.90;;;;;;5115208;28;20436;-83
2021/01/09 06:39:50;;;;;;;34.17;21.70;;;0.90;99.90;;;;;;5114595;28;20178;-83
2021/01/09 06:42:18;;;;;;;37.80;22.60;;;0.90;99.90;;;;;;5115829;28;20473;-82
2021/01/09 06:44:50;;;;;;;37.37;22.17;;;0.50;99.90;;;;;;5114851;28;20477;-83
2021/01/09 06:47:27;;;;;;;40.57;24.00;;;0.40;99.90;;;;;;5114650;28;20424;-83
2021/01/09 06:49:53;;;;;;;35.63;22.07;;;0.90;99.90;;;;;;5114786;28;20815;-83
2021/01/09 06:52:19;;;;;;;38.93;22.70;;;0.50;99.90;;;;;;5114714;28;20463;-84
2021/01/09 06:54:46;;;;;;;42.20;25.33;;;1.00;99.90;;;;;;5114920;28;20481;-83
2021/01/09 06:57:17;;;;;;;40.30;23.90;;;0.30;99.90;;;;;;5114637;28;20181;-83
2021/01/09 06:59:52;;;;;;;38.33;21.77;;;0.80;99.90;;;;;;5114669;28;20506;-83
2021/01/09 07:02:25;;;;;;;41.77;22.30;;;0.50;99.90;;;;;;5114503;28;20412;-83
2021/01/09 07:04:51;;;;;;;39.80;23.07;;;0.90;99.90;;;;;;5114407;28;20430;-83
2021/01/09 07:07:33;;;;;;;40.87;25.17;;;0.80;99.90;;;;;;5115634;28;20411;-83
2021/01/09 07:10:12;;;;;;;42.33;25.57;;;1.00;99.90;;;;;;5114248;28;20797;-83
2021/01/09 07:13:00;;;;;;;36.77;24.57;;;0.80;99.90;;;;;;5113964;28;20559;-83
2021/01/09 07:15:26;;;;;;;38.60;22.37;;;0.80;99.90;;;;;;5137706;27;20803;-83
2021/01/09 07:17:57;;;;;;;37.33;23.17;;;0.80;99.90;;;;;;5113165;28;20463;-84
2021/01/09 07:20:26;;;;;;;40.07;24.03;;;0.40;99.90;;;;;;5114522;28;20918;-84
2021/01/09 07:22:56;;;;;;;41.17;27.20;;;0.40;99.90;;;;;;5113859;28;20424;-83
2021/01/09 07:25:32;;;;;;;34.13;23.70;;;0.80;99.90;;;;;;5114051;28;20415;-82
2021/01/09 07:28:00;;;;;;;39.50;23.03;;;0.70;99.90;;;;;;5114035;28;20427;-83
2021/01/09 07:30:28;;;;;;;40.27;21.60;;;0.90;99.90;;;;;;5114162;28;20411;-83
2021/01/09 07:32:55;;;;;;;36.20;24.13;;;0.80;99.90;;;;;;5114304;28;20562;-83
2021/01/09 07:35:31;;;;;;;38.77;23.80;;;1.00;99.90;;;;;;5114040;28;20411;-83
2021/01/09 07:37:59;;;;;;;37.50;25.40;;;0.50;99.90;;;;;;5113638;28;20415;-84
2021/01/09 07:40:32;;;;;;;37.77;25.33;;;0.50;99.90;;;;;;5114003;28;20416;-84
2021/01/09 07:42:59;;;;;;;37.77;24.07;;;0.80;99.90;;;;;;5112314;28;20424;-82
2021/01/09 07:45:34;;;;;;;35.37;23.60;;;1.10;99.90;;;;;;5106497;28;20446;-82
2021/01/09 07:48:00;;;;;;;38.60;23.47;;;0.90;99.90;;;;;;5116020;28;20491;-83
2021/01/09 07:50:42;;;;;;;35.83;23.20;;;0.90;99.90;;;;;;5112535;28;20424;-84
2021/01/09 07:53:08;;;;;;;38.57;25.10;;;0.60;99.90;;;;;;5112684;28;20475;-83
2021/01/09 07:55:46;;;;;;;39.63;26.33;;;1.00;99.90;;;;;;5112225;27;20826;-83
2021/01/09 07:58:13;;;;;;;37.70;24.60;;;0.90;99.90;;;;;;5117904;27;20177;-84
2021/01/09 08:00:44;;;;;;;34.77;25.30;;;1.10;99.90;;;;;;5114885;27;20960;-84
2021/01/09 08:03:10;;;;;;;44.50;26.23;;;1.00;99.90;;;;;;5113411;27;20501;-85
2021/01/09 08:05:37;;;;;;;34.80;23.47;;;0.50;99.90;;;;;;5112453;28;20431;-84
2021/01/09 08:08:04;;;;;;;33.27;20.60;;;0.60;99.90;;;;;;5112616;28;20264;-81
2021/01/09 08:10:32;;;;;;;32.53;22.30;;;1.00;99.90;;;;;;5112439;28;20436;-82
2021/01/09 08:13:01;;;;;;;34.53;23.00;;;0.80;99.90;;;;;;5111940;28;20475;-83
2021/01/09 08:15:29;;;;;;;31.03;20.00;;;0.80;99.90;;;;;;5112395;28;20502;-83
2021/01/09 08:17:58;;;;;;;30.47;20.80;;;0.80;99.90;;;;;;5117601;27;20480;-84
2021/01/09 08:20:23;;;;;;;30.57;19.50;;;0.50;99.90;;;;;;5133935;27;20462;-84
2021/01/09 08:22:51;;;;;;;29.57;18.63;;;0.50;99.90;;;;;;5132844;27;20427;-83
2021/01/09 08:25:17;;;;;;;31.10;21.07;;;0.40;99.90;;;;;;5132806;27;20267;-83
2021/01/09 08:27:45;;;;;;;30.57;21.50;;;0.40;99.90;;;;;;5132271;27;20821;-84
2021/01/09 08:30:13;;;;;;;31.57;19.80;;;0.40;99.90;;;;;;5132253;27;20419;-84
2021/01/09 08:32:39;;;;;;;28.17;21.00;;;0.80;99.90;;;;;;5132502;27;20462;-84
2021/01/09 08:35:06;;;;;;;29.27;20.10;;;0.40;99.90;;;;;;5136548;27;20914;-84
2021/01/09 08:37:32;;;;;;;27.57;17.90;;;0.70;99.90;;;;;;5132378;27;20454;-83
2021/01/09 08:40:07;;;;;;;30.57;19.17;;;0.40;99.90;;;;;;5120584;27;20450;-84
2021/01/09 08:42:33;;;;;;;33.47;21.80;;;0.40;99.90;;;;;;5113024;28;20180;-83
2021/01/09 08:44:59;;;;;;;30.83;21.40;;;0.30;99.90;;;;;;5112000;28;20412;-83
2021/01/09 08:47:26;;;;;;;31.50;19.30;;;0.40;99.90;;;;;;5111762;28;20181;-83
2021/01/09 08:49:56;;;;;;;26.40;18.83;;;0.50;99.90;;;;;;5111659;28;20511;-83
2021/01/09 08:52:25;;;;;;;23.50;15.80;;;0.70;99.90;;;;;;5111515;28;20464;-83
2021/01/09 08:54:53;;;;;;;30.97;20.93;;;0.70;99.90;;;;;;5113399;28;20412;-84
2021/01/09 08:57:19;;;;;;;28.93;20.33;;;0.70;99.90;;;;;;5111785;28;20432;-83
2021/01/09 08:59:45;;;;;;;27.50;18.63;;;0.80;99.90;;;;;;5112331;28;20414;-82
2021/01/09 09:02:16;;;;;;;28.63;19.30;;;0.50;99.90;;;;;;5110801;28;20562;-83
2021/01/09 09:04:42;;;;;;;29.47;20.47;;;0.50;99.90;;;;;;5113233;28;20412;-83
2021/01/09 09:07:09;;;;;;;30.50;18.97;;;0.60;99.90;;;;;;5112317;28;20428;-82
2021/01/09 09:09:40;;;;;;;23.47;17.43;;;0.50;99.90;;;;;;5105045;28;20561;-83
2021/01/09 09:12:06;;;;;;;30.90;20.13;;;0.90;99.90;;;;;;5117313;28;20466;-82
2021/01/09 09:14:32;;;;;;;24.70;17.73;;;1.10;99.90;;;;;;5128473;27;20456;-83
2021/01/09 09:17:05;;;;;;;24.00;16.30;;;0.80;99.90;;;;;;5111181;28;20436;-83
2021/01/09 09:19:36;;;;;;;30.73;19.00;;;0.90;99.90;;;;;;5112863;28;20487;-85
2021/01/09 09:22:02;;;;;;;28.90;19.00;;;0.80;99.90;;;;;;5111481;28;20424;-83
2021/01/09 09:24:42;;;;;;;30.47;20.20;;;1.20;99.90;;;;;;5112782;28;20827;-84
2021/01/09 09:27:24;;;;;;;25.70;18.00;;;1.20;99.90;;;;;;5111031;28;20218;-83
2021/01/09 09:30:03;;;;;;;23.80;16.73;;;1.20;99.90;;;;;;5111654;28;20422;-83
2021/01/09 09:32:29;;;;;;;19.40;15.07;;;0.60;99.90;;;;;;5112399;28;20474;-83
2021/01/09 09:34:55;;;;;;;20.00;14.97;;;0.80;99.90;;;;;;5111294;28;20419;-84
2021/01/09 09:37:20;;;;;;;23.30;15.20;;;1.20;99.90;;;;;;5113014;28;20170;-82
2021/01/09 09:39:46;;;;;;;21.83;14.17;;;1.00;99.90;;;;;;5127532;28;20449;-82
2021/01/09 09:42:12;;;;;;;20.63;14.57;;;1.20;99.90;;;;;;5135172;27;20624;-82
2021/01/09 09:44:42;;;;;;;14.43;12.43;;;1.10;99.90;;;;;;5136687;27;20290;-83
2021/01/09 09:47:25;;;;;;;18.20;13.20;;;1.60;99.90;;;;;;5138261;27;20168;-83
2021/01/09 09:49:51;;;;;;;20.97;14.50;;;1.40;99.90;;;;;;5136455;27;20415;-82
2021/01/09 09:52:21;;;;;;;20.23;15.20;;;1.00;99.90;;;;;;5135962;27;20457;-83
2021/01/09 09:54:59;;;;;;;22.13;15.40;;;1.70;99.90;;;;;;5136594;27;20192;-82
2021/01/09 09:57:24;;;;;;;20.93;16.13;;;1.20;99.90;;;;;;5136190;27;20974;-82
2021/01/09 10:00:11;;;;;;;19.70;14.50;;;1.70;99.90;;;;;;5135828;27;20423;-83
2021/01/09 10:02:37;;;;;;;19.70;14.70;;;1.80;99.90;;;;;;5136838;27;20651;-83
2021/01/09 10:05:12;;;;;;;16.23;13.10;;;1.60;99.90;;;;;;5137335;27;20406;-83
2021/01/09 10:07:38;;;;;;;17.37;13.43;;;2.00;99.90;;;;;;5137408;27;20229;-83
2021/01/09 10:10:20;;;;;;;20.37;14.10;;;1.40;99.90;;;;;;5137551;27;20407;-83
2021/01/09 10:12:56;;;;;;;18.90;14.70;;;1.70;99.90;;;;;;5136794;27;20240;-83
2021/01/09 10:15:21;;;;;;;24.47;16.30;;;1.60;99.90;;;;;;5136304;27;20883;-83
2021/01/09 10:17:54;;;;;;;15.27;13.33;;;1.70;99.90;;;;;;5136043;27;20419;-82
2021/01/09 10:20:20;;;;;;;17.50;13.60;;;1.70;99.90;;;;;;5137216;27;20173;-83
2021/01/09 10:22:45;;;;;;;26.00;17.43;;;1.20;99.90;;;;;;5137855;27;20803;-83
2021/01/09 10:25:11;;;;;;;23.00;16.07;;;1.20;99.90;;;;;;5135797;27;20173;-83
2021/01/09 10:27:36;;;;;;;20.20;15.60;;;1.70;99.90;;;;;;5137128;27;20270;-81
2021/01/09 10:30:03;;;;;;;24.30;17.63;;;1.10;99.90;;;;;;5121045;27;20178;-82
2021/01/09 10:32:29;;;;;;;22.07;17.20;;;1.50;99.90;;;;;;5114976;28;20228;-83
2021/01/09 10:34:54;;;;;;;23.47;16.93;;;1.70;99.90;;;;;;5115248;28;20411;-83
2021/01/09 10:37:20;;;;;;;24.77;18.60;;;1.70;99.90;;;;;;5114832;28;20202;-81
2021/01/09 10:39:47;;;;;;;19.27;15.80;;;1.90;99.90;;;;;;5115756;28;20348;-83
2021/01/09 10:42:13;;;;;;;28.40;18.40;;;2.10;99.90;;;;;;5115102;28;20177;-84
2021/01/09 10:44:39;;;;;;;23.43;16.77;;;1.50;99.90;;;;;;5116929;28;20899;-83
2021/01/09 10:47:04;;;;;;;21.60;15.27;;;2.30;99.90;;;;;;5114855;28;20424;-83
2021/01/09 10:49:30;;;;;;;21.90;17.23;;;2.30;99.90;;;;;;5114592;28;20174;-82
2021/01/09 10:51:55;;;;;;;21.07;15.77;;;2.40;99.90;;;;;;5114543;28;20201;-83
2021/01/09 10:54:21;;;;;;;22.97;16.00;;;2.60;99.90;;;;;;5114195;28;20188;-83
2021/01/09 10:56:46;;;;;;;23.40;16.63;;;2.00;99.90;;;;;;5114242;28;20199;-83
2021/01/09 10:59:12;;;;;;;24.07;17.27;;;2.30;99.90;;;;;;5115669;28;20177;-82
2021/01/09 11:01:38;;;;;;;21.53;15.90;;;2.40;99.90;;;;;;5115077;28;20177;-83
2021/01/09 11:04:04;;;;;;;21.53;15.83;;;1.80;99.90;;;;;;5115197;28;20434;-83
2021/01/09 11:06:29;;;;;;;22.77;16.70;;;2.50;99.90;;;;;;5114750;28;20280;-84
2021/01/09 11:08:55;;;;;;;24.40;17.30;;;2.00;99.90;;;;;;5114698;28;20223;-82
2021/01/09 11:11:21;;;;;;;18.80;16.17;;;2.60;99.90;;;;;;5116488;28;20253;-82
2021/01/09 11:13:47;;;;;;;22.80;15.97;;;2.20;99.90;;;;;;5115345;28;20242;-83
2021/01/09 11:16:25;;;;;;;20.30;15.47;;;2.60;99.90;;;;;;5115273;28;20434;-82
2021/01/09 11:18:51;;;;;;;22.10;16.40;;;2.80;99.90;;;;;;5114136;28;20848;-82
2021/01/09 11:21:18;;;;;;;20.27;14.20;;;2.60;99.90;;;;;;5114369;28;20418;-82
2021/01/09 11:23:45;;;;;;;16.57;13.33;;;2.70;99.90;;;;;;5114991;28;20713;-83
2021/01/09 11:26:12;;;;;;;17.90;13.80;;;2.30;99.90;;;;;;5115153;28;20448;-83
2021/01/09 11:28:38;;;;;;;20.53;14.53;;;2.70;99.90;;;;;;5113832;28;20418;-83
2021/01/09 11:31:03;;;;;;;18.33;12.93;;;2.70;99.90;;;;;;5113992;28;20455;-82
2021/01/09 11:33:31;;;;;;;16.83;13.13;;;2.60;99.90;;;;;;5114032;28;20471;-83
2021/01/09 11:35:57;;;;;;;21.00;14.97;;;3.00;99.90;;;;;;5115039;28;20184;-83
2021/01/09 11:38:23;;;;;;;18.50;13.63;;;3.00;99.90;;;;;;5113562;28;20921;-82
2021/01/09 11:40:50;;;;;;;20.17;15.00;;;2.80;99.90;;;;;;5115552;28;20180;-83
2021/01/09 11:43:17;;;;;;;18.70;11.80;;;2.50;99.90;;;;;;5113682;28;20184;-83
2021/01/09 11:45:42;;;;;;;18.83;13.80;;;2.90;99.90;;;;;;5114239;28;20458;-83
2021/01/09 11:48:08;;;;;;;17.77;14.23;;;2.20;99.90;;;;;;5115287;28;20411;-84
2021/01/09 11:50:34;;;;;;;18.27;14.40;;;2.70;99.90;;;;;;5114139;28;20190;-85
2021/01/09 11:52:59;;;;;;;15.67;13.50;;;2.50;99.90;;;;;;5113423;28;20509;-83
2021/01/09 11:55:25;;;;;;;18.33;13.70;;;2.80;99.90;;;;;;5115164;28;20174;-85
2021/01/09 11:57:50;;;;;;;16.93;14.00;;;2.70;99.90;;;;;;5113558;28;20541;-84
2021/01/09 12:00:16;;;;;;;15.97;12.10;;;2.80;99.90;;;;;;5113816;28;20220;-84
2021/01/09 12:02:42;;;;;;;17.23;13.17;;;2.80;99.90;;;;;;5113859;28;20231;-84
2021/01/09 12:05:09;;;;;;;16.53;13.10;;;2.20;99.90;;;;;;5113694;28;20898;-84
2021/01/09 12:07:35;;;;;;;14.70;12.00;;;2.20;99.90;;;;;;5113074;28;20166;-82
2021/01/09 12:10:03;;;;;;;16.77;14.10;;;2.00;99.90;;;;;;5113284;28;20412;-84
2021/01/09 12:12:28;;;;;;;14.53;11.87;;;2.20;99.90;;;;;;5114479;28;20194;-82
2021/01/09 12:14:54;;;;;;;15.73;11.90;;;1.90;99.90;;;;;;5113728;28;20416;-83
2021/01/09 12:17:19;;;;;;;20.37;14.20;;;1.80;99.90;;;;;;5114951;28;20173;-83
2021/01/09 12:19:45;;;;;;;18.20;13.47;;;2.10;99.90;;;;;;5112936;28;20225;-84
2021/01/09 12:22:11;;;;;;;18.27;14.47;;;1.70;99.90;;;;;;5113150;28;20174;-82
2021/01/09 12:24:36;;;;;;;24.67;14.60;;;2.10;99.90;;;;;;5113057;28;20260;-82
2021/01/09 12:27:02;;;;;;;15.17;11.70;;;1.90;99.90;;;;;;5112892;28;20224;-83
2021/01/09 12:29:28;;;;;;;15.83;13.00;;;2.10;99.90;;;;;;5112993;28;20231;-85
2021/01/09 12:31:53;;;;;;;16.70;11.73;;;1.60;99.90;;;;;;5112930;28;20212;-83
2021/01/09 12:34:19;;;;;;;18.00;12.40;;;1.70;99.90;;;;;;5113023;28;20697;-82
2021/01/09 12:36:49;;;;;;;17.00;11.90;;;1.70;99.90;;;;;;5113098;28;20196;-83
2021/01/09 12:39:15;;;;;;;14.07;11.10;;;1.50;99.90;;;;;;5113008;28;20186;-83